createdAt,value
2022-10-07T00:02:32.297Z,100.00
2022-10-07T00:05:39.584Z,100.00
2022-10-07T00:08:47.469Z,100.00
2022-10-07T00:11:53.961Z,100.00
2022-10-07T00:15:00.065Z,100.00
2022-10-07T00:18:06.572Z,100.00
2022-10-07T00:21:16.690Z,100.00
2022-10-07T00:24:23.171Z,100.00
2022-10-07T00:27:29.049Z,100.00
2022-10-07T00:30:35.232Z,100.00
2022-10-07T00:33:41.680Z,100.00
2022-10-07T00:36:50.704Z,100.00
2022-10-07T00:39:56.850Z,100.00
2022-10-07T00:43:21.439Z,100.00
2022-10-07T00:46:32.715Z,100.00
2022-10-07T00:49:44.570Z,100.00
2022-10-07T00:52:57.700Z,100.00
2022-10-07T00:56:07.157Z,100.00
2022-10-07T00:59:14.704Z,100.00
2022-10-07T01:02:20.668Z,100.00
2022-10-07T01:05:26.639Z,100.00
2022-10-07T01:08:35.086Z,100.00
2022-10-07T01:11:50.383Z,100.00
2022-10-07T01:15:03.472Z,100.00
2022-10-07T01:18:18.861Z,100.00
2022-10-07T01:21:36.766Z,100.00
2022-10-07T01:24:51.270Z,100.00
2022-10-07T01:28:05.388Z,100.00
2022-10-07T01:31:16.199Z,100.00
2022-10-07T01:34:26.665Z,100.00
2022-10-07T01:37:37.199Z,100.00
2022-10-07T01:40:48.793Z,100.00
2022-10-07T01:43:58.567Z,100.00
2022-10-07T01:47:05.383Z,100.00
2022-10-07T01:50:13.658Z,100.00
2022-10-07T01:53:34.373Z,100.00
2022-10-07T01:56:51.115Z,100.00
2022-10-07T02:00:10.158Z,100.00
2022-10-07T02:03:32.973Z,100.00
2022-10-07T02:06:48.632Z,100.00
2022-10-07T02:10:07.066Z,100.00
2022-10-07T02:13:16.958Z,100.00
2022-10-07T02:16:27.690Z,100.00
2022-10-07T02:19:39.422Z,100.00
2022-10-07T02:22:48.423Z,100.00
2022-10-07T02:25:56.912Z,100.00
2022-10-07T02:29:05.875Z,100.00
2022-10-07T02:32:18.867Z,100.00
2022-10-07T02:35:29.381Z,100.00
2022-10-07T02:38:35.476Z,100.00
2022-10-07T02:41:50.248Z,100.00
2022-10-07T02:45:02.296Z,100.00
2022-10-07T02:48:18.341Z,100.00
2022-10-07T02:51:29.605Z,100.00
2022-10-07T02:54:40.121Z,100.00
2022-10-07T02:57:49.690Z,100.00
2022-10-07T03:00:59.966Z,100.00
2022-10-07T03:04:07.887Z,100.00
2022-10-07T03:07:13.980Z,100.00
2022-10-07T03:10:20.255Z,100.00
2022-10-07T03:13:26.404Z,100.00
2022-10-07T03:16:33.070Z,100.00
2022-10-07T03:19:40.528Z,100.00
2022-10-07T03:22:46.764Z,100.00
2022-10-07T03:25:53.649Z,100.00
2022-10-07T03:29:01.317Z,100.00
2022-10-07T03:32:07.785Z,100.00
2022-10-07T03:35:15.724Z,100.00
2022-10-07T03:38:22.844Z,100.00
2022-10-07T03:41:29.249Z,100.00
2022-10-07T03:44:35.838Z,100.00
2022-10-07T03:47:42.369Z,100.00
2022-10-07T03:50:53.690Z,100.00
2022-10-07T03:53:59.747Z,100.00
2022-10-07T03:57:26.530Z,100.00
2022-10-07T04:00:32.533Z,100.00
2022-10-07T04:03:38.960Z,100.00
2022-10-07T04:06:46.566Z,100.00
2022-10-07T04:09:52.661Z,100.00
2022-10-07T04:12:59.109Z,100.00
2022-10-07T04:16:08.818Z,100.00
2022-10-07T04:19:15.279Z,100.00
2022-10-07T04:22:23.099Z,100.00
2022-10-07T04:25:35.251Z,100.00
2022-10-07T04:28:42.050Z,100.00
2022-10-07T04:31:48.065Z,100.00
2022-10-07T04:34:54.327Z,100.00
2022-10-07T04:38:02.072Z,100.00
2022-10-07T04:41:08.949Z,100.00
2022-10-07T04:44:15.230Z,100.00
2022-10-07T04:47:21.483Z,100.00
2022-10-07T04:50:28.224Z,100.00
2022-10-07T04:53:36.871Z,100.00
2022-10-07T04:56:43.319Z,100.00
2022-10-07T04:59:49.591Z,100.00
2022-10-07T05:02:56.051Z,100.00
2022-10-07T05:06:05.833Z,100.00
2022-10-07T05:09:13.612Z,100.00
2022-10-07T05:12:19.784Z,100.00
2022-10-07T05:15:25.730Z,100.00
2022-10-07T05:18:33.455Z,100.00
2022-10-07T05:21:40.182Z,100.00
2022-10-07T05:24:47.355Z,100.00
2022-10-07T05:27:55.163Z,100.00
2022-10-07T05:31:07.337Z,100.00
2022-10-07T05:34:13.721Z,100.00
2022-10-07T05:37:19.938Z,100.00
2022-10-07T05:40:27.872Z,100.00
2022-10-07T05:43:38.120Z,100.00
2022-10-07T05:46:44.369Z,100.00
2022-10-07T05:49:50.768Z,100.00
2022-10-07T05:52:57.755Z,100.00
2022-10-07T05:56:08.416Z,100.00
2022-10-07T05:59:14.910Z,100.00
2022-10-07T06:02:21.369Z,100.00
2022-10-07T06:05:27.743Z,100.00
2022-10-07T06:08:33.864Z,100.00
2022-10-07T06:11:58.841Z,100.00
2022-10-07T06:15:05.306Z,100.00
2022-10-07T06:18:11.884Z,100.00
2022-10-07T06:21:18.126Z,98.06
2022-10-07T06:24:24.000Z,98.79
2022-10-07T06:27:32.131Z,94.25
2022-10-07T06:30:39.176Z,90.01
2022-10-07T06:33:45.351Z,88.93
2022-10-07T06:36:51.433Z,90.63
2022-10-07T06:39:59.746Z,90.02
2022-10-07T06:43:07.515Z,92.14
2022-10-07T06:46:15.998Z,94.21
2022-10-07T06:49:21.891Z,92.37
2022-10-07T06:52:28.092Z,88.31
2022-10-07T06:55:34.222Z,86.34
2022-10-07T06:58:42.701Z,86.00
2022-10-07T07:01:48.616Z,84.55
2022-10-07T07:04:57.747Z,87.41
2022-10-07T07:08:03.995Z,85.51
2022-10-07T07:11:25.886Z,85.74
2022-10-07T07:14:35.075Z,85.20
2022-10-07T07:17:40.879Z,84.23
2022-10-07T07:20:47.411Z,82.04
2022-10-07T07:23:53.367Z,81.17
2022-10-07T07:26:59.727Z,74.49
2022-10-07T07:30:08.842Z,71.52
2022-10-07T07:33:14.875Z,72.06
2022-10-07T07:36:23.394Z,72.77
2022-10-07T07:39:29.391Z,69.87
2022-10-07T07:42:37.394Z,70.50
2022-10-07T07:45:45.161Z,69.32
2022-10-07T07:48:52.244Z,65.51
2022-10-07T07:51:58.620Z,65.57
2022-10-07T07:55:05.480Z,64.82
2022-10-07T07:58:12.130Z,64.51
2022-10-07T08:01:20.210Z,63.83
2022-10-07T08:04:26.803Z,63.75
2022-10-07T08:07:33.223Z,59.19
2022-10-07T08:10:40.394Z,56.08
2022-10-07T08:13:48.154Z,58.33
2022-10-07T08:16:57.829Z,58.30
2022-10-07T08:20:04.662Z,60.07
2022-10-07T08:23:11.159Z,56.51
2022-10-07T08:26:17.612Z,55.89
2022-10-07T08:29:24.143Z,57.17
2022-10-07T08:32:32.275Z,55.09
2022-10-07T08:35:38.426Z,56.12
2022-10-07T08:38:47.859Z,54.22
2022-10-07T08:42:00.122Z,49.97
2022-10-07T08:45:08.696Z,48.57
2022-10-07T08:48:23.087Z,48.97
2022-10-07T08:51:38.963Z,47.66
2022-10-07T08:54:45.400Z,47.73
2022-10-07T08:58:04.514Z,45.47
2022-10-07T09:01:24.351Z,44.87
2022-10-07T09:04:49.020Z,43.78
2022-10-07T09:07:59.395Z,42.21
2022-10-07T09:11:16.707Z,40.93
2022-10-07T09:14:29.147Z,40.61
2022-10-07T09:17:40.861Z,39.67
2022-10-07T09:20:53.383Z,38.74
2022-10-07T09:24:04.447Z,39.52
2022-10-07T09:27:16.711Z,38.54
2022-10-07T09:30:24.384Z,38.26
2022-10-07T09:33:31.017Z,38.60
2022-10-07T09:37:10.923Z,38.70
2022-10-07T09:40:32.207Z,38.30
2022-10-07T09:43:42.692Z,37.74
2022-10-07T09:46:51.280Z,37.20
2022-10-07T09:49:59.894Z,36.17
2022-10-07T09:53:19.430Z,36.23
2022-10-07T09:56:44.818Z,35.12
2022-10-07T09:59:51.107Z,35.72
2022-10-07T10:03:05.533Z,36.02
2022-10-07T10:06:12.372Z,36.47
2022-10-07T10:09:23.819Z,34.89
2022-10-07T10:12:30.250Z,35.01
2022-10-07T10:15:42.684Z,34.60
2022-10-07T10:18:56.518Z,36.47
2022-10-07T10:22:02.654Z,34.61
2022-10-07T10:25:29.602Z,34.57
2022-10-07T10:28:45.066Z,33.21
2022-10-07T10:32:17.880Z,34.20
2022-10-07T10:35:28.894Z,33.86
2022-10-07T10:38:45.803Z,33.72
2022-10-07T10:41:57.099Z,33.52
2022-10-07T10:45:15.906Z,32.65
2022-10-07T10:48:33.443Z,33.02
2022-10-07T10:51:56.800Z,32.65
2022-10-07T10:55:18.027Z,32.25
2022-10-07T10:58:38.190Z,31.74
2022-10-07T11:01:47.020Z,31.84
2022-10-07T11:04:58.406Z,32.25
2022-10-07T11:08:12.951Z,31.99
2022-10-07T11:11:22.834Z,31.59
2022-10-07T11:14:32.771Z,32.54
2022-10-07T11:17:40.205Z,31.71
2022-10-07T11:20:48.543Z,31.49
2022-10-07T11:24:02.347Z,31.30
2022-10-07T11:27:15.751Z,31.66
2022-10-07T11:30:25.149Z,30.68
2022-10-07T11:33:40.411Z,31.67
2022-10-07T11:36:56.066Z,29.84
2022-10-07T11:40:05.758Z,31.18
2022-10-07T11:43:17.806Z,30.83
2022-10-07T11:46:29.872Z,32.53
2022-10-07T11:49:42.901Z,30.02
2022-10-07T11:52:52.461Z,30.81
2022-10-07T11:56:01.698Z,31.01
2022-10-07T11:59:08.820Z,29.24
2022-10-07T12:02:39.752Z,29.93
2022-10-07T12:06:11.587Z,29.09
2022-10-07T12:09:50.358Z,29.70
2022-10-07T12:13:40.169Z,29.17
2022-10-07T12:16:56.304Z,29.47
2022-10-07T12:20:45.236Z,32.08
2022-10-07T12:24:15.465Z,32.16
2022-10-07T12:27:25.061Z,30.28
2022-10-07T12:30:42.604Z,29.26
2022-10-07T12:33:57.557Z,29.99
2022-10-07T12:37:45.650Z,29.46
2022-10-07T12:41:23.160Z,29.92
2022-10-07T12:44:34.687Z,30.29
2022-10-07T12:47:42.623Z,29.21
2022-10-07T12:50:52.338Z,28.97
2022-10-07T12:54:01.558Z,29.38
2022-10-07T12:57:14.241Z,29.58
2022-10-07T13:00:24.506Z,30.80
2022-10-07T13:04:06.056Z,29.62
2022-10-07T13:07:46.867Z,29.64
2022-10-07T13:11:44.299Z,29.12
2022-10-07T13:15:04.548Z,29.81
2022-10-07T13:18:19.146Z,28.60
2022-10-07T13:21:32.083Z,30.37
2022-10-07T13:24:42.242Z,29.89
2022-10-07T13:27:54.547Z,29.72
2022-10-07T13:31:14.759Z,28.81
2022-10-07T13:34:21.914Z,29.99
2022-10-07T13:37:30.914Z,29.98
2022-10-07T13:40:37.292Z,29.52
2022-10-07T13:43:46.220Z,29.77
2022-10-07T13:46:57.319Z,30.18
2022-10-07T13:50:04.453Z,30.56
2022-10-07T13:53:20.730Z,30.16
2022-10-07T13:56:30.599Z,30.58
2022-10-07T13:59:38.316Z,29.93
2022-10-07T14:02:45.310Z,30.11
2022-10-07T14:05:53.207Z,29.74
2022-10-07T14:09:00.678Z,30.75
2022-10-07T14:12:09.727Z,30.49
2022-10-07T14:15:21.440Z,29.70
2022-10-07T14:18:29.907Z,29.30
2022-10-07T14:21:41.669Z,30.63
2022-10-07T14:24:59.953Z,29.94
2022-10-07T14:28:18.667Z,30.66
2022-10-07T14:31:45.564Z,30.57
2022-10-07T14:35:09.252Z,30.53
2022-10-07T14:38:27.537Z,31.85
2022-10-07T14:41:33.852Z,30.68
2022-10-07T14:44:43.889Z,30.06
2022-10-07T14:47:51.407Z,28.22
2022-10-07T14:50:57.307Z,30.83
2022-10-07T14:54:06.704Z,28.67
2022-10-07T14:57:12.958Z,30.44
2022-10-07T15:00:21.227Z,31.81
2022-10-07T15:03:30.935Z,32.66
2022-10-07T15:06:38.036Z,34.08
2022-10-07T15:09:45.598Z,34.96
2022-10-07T15:12:52.249Z,34.51
2022-10-07T15:15:58.466Z,35.85
2022-10-07T15:19:06.741Z,35.54
2022-10-07T15:22:13.535Z,36.50
2022-10-07T15:25:21.135Z,38.69
2022-10-07T15:28:27.139Z,41.18
2022-10-07T15:31:33.320Z,41.99
2022-10-07T15:34:40.890Z,43.75
2022-10-07T15:37:47.362Z,43.63
2022-10-07T15:40:56.440Z,43.70
2022-10-07T15:44:04.520Z,44.06
2022-10-07T15:47:10.982Z,45.89
2022-10-07T15:50:18.731Z,44.10
2022-10-07T15:53:25.839Z,46.74
2022-10-07T15:56:32.062Z,48.53
2022-10-07T15:59:38.080Z,48.77
2022-10-07T16:02:44.762Z,47.52
2022-10-07T16:05:59.782Z,47.87
2022-10-07T16:09:07.348Z,49.03
2022-10-07T16:12:13.531Z,49.89
2022-10-07T16:15:19.910Z,50.80
2022-10-07T16:18:26.339Z,50.97
2022-10-07T16:21:35.627Z,51.74
2022-10-07T16:24:42.363Z,51.32
2022-10-07T16:28:06.238Z,51.10
2022-10-07T16:31:12.709Z,48.50
2022-10-07T16:34:19.831Z,48.23
2022-10-07T16:37:29.450Z,54.41
2022-10-07T16:40:35.275Z,51.88
2022-10-07T16:43:41.980Z,56.45
2022-10-07T16:46:49.140Z,51.56
2022-10-07T16:49:55.418Z,56.31
2022-10-07T16:53:02.965Z,59.04
2022-10-07T16:56:10.899Z,58.74
2022-10-07T16:59:22.626Z,57.08
2022-10-07T17:02:31.308Z,59.60
2022-10-07T17:05:39.302Z,55.22
2022-10-07T17:08:48.530Z,55.92
2022-10-07T17:11:54.720Z,55.35
2022-10-07T17:15:02.155Z,57.90
2022-10-07T17:18:08.195Z,61.66
2022-10-07T17:21:14.512Z,62.38
2022-10-07T17:24:23.575Z,63.83
2022-10-07T17:27:29.491Z,65.86
2022-10-07T17:30:35.740Z,64.38
2022-10-07T17:33:42.905Z,68.10
2022-10-07T17:36:49.701Z,71.93
2022-10-07T17:39:57.726Z,67.76
2022-10-07T17:43:07.656Z,63.04
2022-10-07T17:46:15.576Z,58.82
2022-10-07T17:49:21.636Z,63.79
2022-10-07T17:52:27.742Z,67.74
2022-10-07T17:55:34.955Z,68.58
2022-10-07T17:58:41.956Z,66.43
2022-10-07T18:01:48.571Z,70.05
2022-10-07T18:04:54.986Z,80.40
2022-10-07T18:08:01.192Z,86.16
2022-10-07T18:11:09.436Z,90.08
2022-10-07T18:14:32.944Z,89.77
2022-10-07T18:17:39.030Z,87.42
2022-10-07T18:20:45.092Z,86.64
2022-10-07T18:23:52.253Z,90.54
2022-10-07T18:27:01.930Z,92.11
2022-10-07T18:30:09.644Z,91.55
2022-10-07T18:33:15.732Z,93.20
2022-10-07T18:36:22.078Z,95.06
2022-10-07T18:39:29.771Z,94.03
2022-10-07T18:42:39.442Z,90.90
2022-10-07T18:45:45.969Z,89.53
2022-10-07T18:48:52.643Z,87.59
2022-10-07T18:51:59.082Z,91.46
2022-10-07T18:55:06.240Z,100.00
2022-10-07T18:58:13.819Z,98.50
2022-10-07T19:01:22.127Z,100.00
2022-10-07T19:04:30.357Z,100.00
2022-10-07T19:07:36.889Z,99.98
2022-10-07T19:10:44.154Z,99.94
2022-10-07T19:13:59.020Z,99.99
2022-10-07T19:17:05.546Z,100.00
2022-10-07T19:20:11.863Z,98.99
2022-10-07T19:23:18.253Z,100.00
2022-10-07T19:26:27.334Z,100.00
2022-10-07T19:29:34.827Z,100.00
2022-10-07T19:32:41.107Z,100.00
2022-10-07T19:35:47.937Z,100.00
2022-10-07T19:38:54.304Z,100.00
2022-10-07T19:42:00.755Z,100.00
2022-10-07T19:45:10.348Z,100.00
2022-10-07T19:48:16.411Z,100.00
2022-10-07T19:51:23.531Z,100.00
2022-10-07T19:54:30.591Z,100.00
2022-10-07T19:57:37.509Z,100.00
2022-10-07T20:00:45.184Z,100.00
2022-10-07T20:03:57.892Z,100.00
2022-10-07T20:07:04.069Z,100.00
2022-10-07T20:10:10.387Z,100.00
2022-10-07T20:13:17.679Z,100.00
2022-10-07T20:16:27.120Z,100.00
2022-10-07T20:19:35.606Z,100.00
2022-10-07T20:22:45.841Z,100.00
2022-10-07T20:25:55.042Z,100.00
2022-10-07T20:29:02.730Z,100.00
2022-10-07T20:32:10.436Z,100.00
2022-10-07T20:35:16.827Z,100.00
2022-10-07T20:38:23.226Z,100.00
2022-10-07T20:41:47.718Z,100.00
2022-10-07T20:44:54.631Z,100.00
2022-10-07T20:48:01.974Z,100.00
2022-10-07T20:51:08.520Z,100.00
2022-10-07T20:54:15.184Z,100.00
2022-10-07T20:57:23.528Z,100.00
2022-10-07T21:00:29.507Z,100.00
2022-10-07T21:03:38.266Z,100.00
2022-10-07T21:06:45.004Z,100.00
2022-10-07T21:09:51.268Z,100.00
2022-10-07T21:12:57.986Z,100.00
2022-10-07T21:16:06.612Z,100.00
2022-10-07T21:19:14.277Z,100.00
2022-10-07T21:22:20.588Z,100.00
2022-10-07T21:25:26.724Z,100.00
2022-10-07T21:28:34.156Z,100.00
2022-10-07T21:31:41.145Z,100.00
2022-10-07T21:34:49.019Z,100.00
2022-10-07T21:37:55.171Z,100.00
2022-10-07T21:41:01.825Z,100.00
2022-10-07T21:44:11.710Z,100.00
2022-10-07T21:47:18.109Z,100.00
2022-10-07T21:50:27.124Z,100.00
2022-10-07T21:53:34.219Z,100.00
2022-10-07T21:56:40.822Z,100.00
2022-10-07T21:59:47.103Z,100.00
2022-10-07T22:02:56.923Z,100.00
2022-10-07T22:06:06.326Z,100.00
2022-10-07T22:09:12.967Z,100.00
2022-10-07T22:12:19.534Z,100.00
2022-10-07T22:15:26.038Z,100.00
2022-10-07T22:18:34.345Z,100.00
2022-10-07T22:21:42.032Z,100.00
2022-10-07T22:24:48.457Z,100.00
2022-10-07T22:27:54.963Z,100.00
2022-10-07T22:31:04.344Z,100.00
2022-10-07T22:34:30.727Z,100.00
2022-10-07T22:37:38.444Z,100.00
2022-10-07T22:40:44.430Z,100.00
2022-10-07T22:43:51.471Z,100.00
2022-10-07T22:46:59.338Z,100.00
2022-10-07T22:50:08.017Z,100.00
2022-10-07T22:53:15.678Z,100.00
2022-10-07T22:56:23.356Z,100.00
2022-10-07T22:59:29.550Z,100.00
2022-10-07T23:02:35.916Z,100.00
2022-10-07T23:05:42.167Z,100.00
2022-10-07T23:08:50.065Z,100.00
2022-10-07T23:11:56.236Z,100.00
2022-10-07T23:15:04.156Z,100.00
2022-10-07T23:18:10.607Z,100.00
2022-10-07T23:21:19.572Z,100.00
2022-10-07T23:24:28.426Z,100.00
2022-10-07T23:27:35.397Z,100.00
2022-10-07T23:30:41.424Z,100.00
2022-10-07T23:33:49.460Z,100.00
2022-10-07T23:36:55.651Z,100.00
2022-10-07T23:40:03.291Z,100.00
2022-10-07T23:43:11.768Z,100.00
2022-10-07T23:46:19.077Z,100.00
2022-10-07T23:49:25.439Z,100.00
2022-10-07T23:52:32.140Z,100.00
2022-10-07T23:55:39.715Z,100.00
2022-10-07T23:58:47.059Z,100.00
